Estación de Remehue INIA

Ultimos registro cada 15 minutos 91
Estación Fecha / Hora Temperatura Humedad Lluvia Velocidad Dirección Radiación Presion
91 Remehue INIA 03-05-2026 22:30 9,7 98 0 0,9 286 0 1006
90 Remehue INIA 03-05-2026 22:15 9,8 98 0 0,2 268 0 1006
89 Remehue INIA 03-05-2026 22:00 9,6 98,2 0 0,4 176 0 1006
88 Remehue INIA 03-05-2026 21:45 9,7 97,7 0 0,7 290 0 1006
87 Remehue INIA 03-05-2026 21:30 9,5 98,3 0 0,2 303 0 1006
86 Remehue INIA 03-05-2026 21:15 9,3 98 0 0,5 347 0 1006
85 Remehue INIA 03-05-2026 21:00 9,5 97,8 0 0,5 311 0 1005
84 Remehue INIA 03-05-2026 20:45 9,5 97,7 0,1 0,4 345 0 1005
83 Remehue INIA 03-05-2026 20:30 9,9 95,4 0 0,4 345 0 1005
82 Remehue INIA 03-05-2026 20:15 10,1 95 0 0 191 0 1005
81 Remehue INIA 03-05-2026 20:00 10,4 94,1 0 0,8 290 0 1005
80 Remehue INIA 03-05-2026 19:45 10,5 92,5 0 0,5 248 0 1005
79 Remehue INIA 03-05-2026 19:30 10,8 90,5 0 1 260 0 1005
78 Remehue INIA 03-05-2026 19:15 11 91,5 0 1,3 256 0 1005
77 Remehue INIA 03-05-2026 19:00 10,7 96,7 0 0,5 196 0 1005
76 Remehue INIA 03-05-2026 18:45 10,9 96,3 0,1 0,5 314 0 1004
75 Remehue INIA 03-05-2026 18:30 11,5 95,4 0 0,4 307 0 1005
74 Remehue INIA 03-05-2026 18:15 11,6 94,9 0,5 1,1 174 0 1005
73 Remehue INIA 03-05-2026 18:00 11,7 94,4 0 0,7 152 0 1004
72 Remehue INIA 03-05-2026 17:45 11,4 95,3 0 1 305 12 1004
71 Remehue INIA 03-05-2026 17:30 11,6 95,9 0 2 348 30 1004
70 Remehue INIA 03-05-2026 17:15 12 94,7 0 1 331 45 1004
69 Remehue INIA 03-05-2026 17:00 12,3 93,6 0,1 1,8 288 76 1004
68 Remehue INIA 03-05-2026 16:45 12,5 92,2 0,2 0,7 287 30 1004
67 Remehue INIA 03-05-2026 16:30 12,6 90 0 0,3 308 43 1003
66 Remehue INIA 03-05-2026 16:15 12,7 89,8 0 0,6 329 87 1004
65 Remehue INIA 03-05-2026 16:00 12,7 89,5 0 0,7 313 89 1003
64 Remehue INIA 03-05-2026 15:45 12,9 89,2 0 1,6 314 124 1003
63 Remehue INIA 03-05-2026 15:30 13,5 87,4 0 1,4 300 204 1003
62 Remehue INIA 03-05-2026 15:15 13,7 84,9 0 1,3 294 386 1003
61 Remehue INIA 03-05-2026 15:00 13,1 88,1 0 1,6 308 396 1003
60 Remehue INIA 03-05-2026 14:45 12,4 90,9 0 1,4 303 339 1003
59 Remehue INIA 03-05-2026 14:30 11,8 93,4 0 1 290 179 1003
58 Remehue INIA 03-05-2026 14:15 11,4 95 0 1,8 297 286 1003
57 Remehue INIA 03-05-2026 14:00 10,9 95,2 0 2,1 298 287 1003
56 Remehue INIA 03-05-2026 13:45 10,4 97 0,1 1,9 304 198 1003
55 Remehue INIA 03-05-2026 13:30 10 97,3 0,1 1,5 279 99 1003
54 Remehue INIA 03-05-2026 13:15 9,9 96,9 0,2 2,3 300 86 1003
53 Remehue INIA 03-05-2026 13:00 9,8 96,6 0,4 2,9 298 75 1003
52 Remehue INIA 03-05-2026 12:45 9,7 96 1,1 3 287 71 1003
51 Remehue INIA 03-05-2026 12:30 9,8 95 1 3,6 290 87 1003
50 Remehue INIA 03-05-2026 12:15 9,9 92,6 0,2 2,9 287 85 1003
49 Remehue INIA 03-05-2026 12:00 9,8 92,9 0 2,4 289 81 1003
48 Remehue INIA 03-05-2026 11:45 9,7 93 0 2,9 292 98 1003
47 Remehue INIA 03-05-2026 11:30 9,7 91,7 0 3,1 294 107 1003
46 Remehue INIA 03-05-2026 11:15 9,6 91,6 0 3 297 81 1003
45 Remehue INIA 03-05-2026 11:00 9,6 90,6 0 2,6 294 161 1003
44 Remehue INIA 03-05-2026 10:45 9,3 91,6 0 2,7 295 136 1003
43 Remehue INIA 03-05-2026 10:30 9,1 91,7 0 2,5 290 108 1003
42 Remehue INIA 03-05-2026 10:15 9 92,3 0 2,7 301 119 1003
41 Remehue INIA 03-05-2026 10:00 8,9 92,5 0 2,7 296 93 1003
40 Remehue INIA 03-05-2026 09:45 8,8 92,8 0 2,9 292 64 1003
39 Remehue INIA 03-05-2026 09:30 8,7 92,5 0 3 293 86 1003
38 Remehue INIA 03-05-2026 09:15 8,4 93,8 0 2,7 296 54 1003
37 Remehue INIA 03-05-2026 09:00 8,3 95,1 0 1,5 315 39 1003
36 Remehue INIA 03-05-2026 08:45 8 96 0 1,6 338 31 1003
35 Remehue INIA 03-05-2026 08:30 7,7 95,7 0 0,8 11 21 1002
34 Remehue INIA 03-05-2026 08:15 7,6 95 0 1,6 301 7 1003
33 Remehue INIA 03-05-2026 08:00 7,7 93,6 0 2,1 289 0 1002
32 Remehue INIA 03-05-2026 07:45 7,8 92,4 0 2,6 293 0 1002
31 Remehue INIA 03-05-2026 07:30 7,7 91,4 0 3,2 292 0 1002
30 Remehue INIA 03-05-2026 07:15 7,5 91,8 0,1 3,4 289 0 1002
29 Remehue INIA 03-05-2026 07:00 7,4 91,8 0 3,2 291 0 1002
28 Remehue INIA 03-05-2026 06:45 7,4 90,6 0,1 2,8 291 0 1002
27 Remehue INIA 03-05-2026 06:30 7,4 89,3 0,2 2,6 291 0 1003
26 Remehue INIA 03-05-2026 06:15 7,8 87 0,3 2,6 286 0 1002
25 Remehue INIA 03-05-2026 06:00 8,1 83,5 0,2 2,1 287 0 1002
24 Remehue INIA 03-05-2026 05:45 8,5 81,1 0,5 1,9 289 0 1002
23 Remehue INIA 03-05-2026 05:30 8,8 77,2 0 1,1 257 0 1003
22 Remehue INIA 03-05-2026 05:15 9,1 74,6 0 1,7 273 0 1002
21 Remehue INIA 03-05-2026 05:00 8,9 73,6 0 1,9 284 0 1002
20 Remehue INIA 03-05-2026 04:45 8,6 74,9 0 1 278 0 1003
19 Remehue INIA 03-05-2026 04:30 8,4 75,4 0 1,1 280 0 1003
18 Remehue INIA 03-05-2026 04:15 8,5 74,8 0 1 286 0 1002
17 Remehue INIA 03-05-2026 04:00 8,5 71,9 0 2 292 0 1003
16 Remehue INIA 03-05-2026 03:45 8,2 73,4 0 2,2 288 0 1004
15 Remehue INIA 03-05-2026 03:30 8,1 76,4 0 2,5 292 0 1004
14 Remehue INIA 03-05-2026 03:15 7,9 79,2 0 1,9 290 0 1004
13 Remehue INIA 03-05-2026 03:00 7,8 80,7 0 1,2 284 0 1004
12 Remehue INIA 03-05-2026 02:45 7,6 81,2 0 0,9 294 0 1004
11 Remehue INIA 03-05-2026 02:30 7,4 83 0 1,2 274 0 1004
10 Remehue INIA 03-05-2026 02:15 7,2 84,4 0 0,3 285 0 1005
9 Remehue INIA 03-05-2026 02:00 7,1 84,9 0 0,9 277 0 1005
8 Remehue INIA 03-05-2026 01:45 6,6 86,5 0 0,4 283 0 1005
7 Remehue INIA 03-05-2026 01:30 6,3 87,7 0 0,4 273 0 1005
6 Remehue INIA 03-05-2026 01:15 5,8 89,2 0 0,6 248 0 1005
5 Remehue INIA 03-05-2026 01:00 5,6 90 0 1 280 0 1005
4 Remehue INIA 03-05-2026 00:45 5,4 90,7 0 0,7 206 0 1006
3 Remehue INIA 03-05-2026 00:30 5,3 90,1 0 0,5 240 0 1005
2 Remehue INIA 03-05-2026 00:15 4,5 94,3 0 0,2 232 0 1005
1 Remehue INIA 03-05-2026 00:00 4,2 94,7 0 0,4 29 0 1006